createdAt,value
2018-03-08T00:02:11.797Z,4.20
2018-03-08T00:04:37.999Z,4.10
2018-03-08T00:07:04.960Z,4.20
2018-03-08T00:09:31.176Z,4.10
2018-03-08T00:11:58.170Z,4.10
2018-03-08T00:14:24.351Z,4.10
2018-03-08T00:16:51.316Z,4.10
2018-03-08T00:19:17.532Z,4.00
2018-03-08T00:21:44.534Z,4.00
2018-03-08T00:24:10.753Z,4.00
2018-03-08T00:26:37.000Z,4.00
2018-03-08T00:29:03.231Z,4.00
2018-03-08T00:31:29.433Z,4.00
2018-03-08T00:33:55.659Z,4.00
2018-03-08T00:36:21.852Z,4.00
2018-03-08T00:38:55.815Z,4.00
2018-03-08T00:41:22.008Z,4.00
2018-03-08T00:43:48.233Z,4.00
2018-03-08T00:46:14.423Z,4.00
2018-03-08T00:48:40.647Z,3.90
2018-03-08T00:51:06.832Z,4.00
2018-03-08T00:53:33.055Z,4.00
2018-03-08T00:55:59.253Z,4.00
2018-03-08T00:58:26.216Z,3.90
2018-03-08T01:00:53.168Z,3.90
2018-03-08T01:03:19.393Z,3.90
2018-03-08T01:05:46.323Z,4.00
2018-03-08T01:08:13.296Z,3.90
2018-03-08T01:10:39.492Z,3.90
2018-03-08T01:13:05.713Z,3.80
2018-03-08T01:15:31.909Z,3.90
2018-03-08T01:17:58.120Z,3.90
2018-03-08T01:20:24.408Z,3.90
2018-03-08T01:22:50.601Z,3.90
2018-03-08T01:25:17.085Z,3.90
2018-03-08T01:27:44.016Z,3.90
2018-03-08T01:30:10.255Z,3.90
2018-03-08T01:32:37.184Z,3.90
2018-03-08T01:35:03.405Z,3.90
2018-03-08T01:37:29.597Z,3.90
2018-03-08T01:39:55.818Z,3.90
2018-03-08T01:42:22.004Z,3.90
2018-03-08T01:44:48.241Z,3.90
2018-03-08T01:47:15.178Z,3.70
2018-03-08T01:49:41.393Z,3.70
2018-03-08T01:52:10.546Z,3.70
2018-03-08T01:54:37.488Z,3.50
2018-03-08T01:57:03.672Z,3.50
2018-03-08T01:59:29.897Z,3.50
2018-03-08T02:01:56.860Z,3.50
2018-03-08T02:04:23.820Z,3.50
2018-03-08T02:06:51.012Z,3.50
2018-03-08T02:09:17.465Z,3.50
2018-03-08T02:11:43.977Z,3.50
2018-03-08T02:14:10.742Z,3.50
2018-03-08T02:16:37.279Z,3.50
2018-03-08T02:19:04.125Z,3.50
2018-03-08T02:21:31.434Z,3.40
2018-03-08T02:23:57.641Z,3.50
2018-03-08T02:26:24.608Z,3.40
2018-03-08T02:28:50.805Z,3.40
2018-03-08T02:31:17.023Z,3.40
2018-03-08T02:33:43.213Z,3.40
2018-03-08T02:36:09.470Z,3.40
2018-03-08T02:38:35.668Z,3.40
2018-03-08T02:41:01.865Z,3.40
2018-03-08T02:43:28.833Z,3.30
2018-03-08T02:45:55.028Z,3.30
2018-03-08T02:48:21.257Z,3.30
2018-03-08T02:50:48.205Z,3.40
2018-03-08T02:53:15.173Z,3.40
2018-03-08T02:55:41.436Z,3.40
2018-03-08T02:58:07.652Z,3.40
2018-03-08T03:00:33.843Z,3.40
2018-03-08T03:03:00.820Z,3.40
2018-03-08T03:05:27.035Z,3.40
2018-03-08T03:07:53.520Z,3.30
2018-03-08T03:10:19.760Z,3.30
2018-03-08T03:12:46.285Z,3.30
2018-03-08T03:15:12.480Z,3.30
2018-03-08T03:17:38.711Z,3.30
2018-03-08T03:20:04.928Z,3.30
2018-03-08T03:22:31.149Z,3.30
2018-03-08T03:24:57.368Z,3.20
2018-03-08T03:27:24.300Z,3.20
2018-03-08T03:29:50.520Z,3.20
2018-03-08T03:32:16.711Z,3.10
2018-03-08T03:34:42.924Z,3.20
2018-03-08T03:37:09.117Z,3.20
2018-03-08T03:39:36.086Z,3.30
2018-03-08T03:42:02.276Z,3.20
2018-03-08T03:44:28.500Z,3.30
2018-03-08T03:46:54.688Z,3.30
2018-03-08T03:49:20.908Z,3.20
2018-03-08T03:51:47.101Z,3.20
2018-03-08T03:54:14.067Z,3.30
2018-03-08T03:56:41.007Z,3.30
2018-03-08T03:59:07.960Z,3.30
2018-03-08T04:01:34.888Z,3.30
2018-03-08T04:04:01.847Z,3.30
2018-03-08T04:06:28.784Z,3.30
2018-03-08T04:08:55.768Z,3.30
2018-03-08T04:11:21.952Z,3.30
2018-03-08T04:13:48.144Z,3.30
2018-03-08T04:16:14.372Z,3.30
2018-03-08T04:18:40.585Z,3.30
2018-03-08T04:21:06.813Z,3.30
2018-03-08T04:23:33.009Z,3.30
2018-03-08T04:25:59.973Z,3.30
2018-03-08T04:28:26.168Z,3.30
2018-03-08T04:30:52.388Z,3.20
2018-03-08T04:33:20.064Z,3.10
2018-03-08T04:35:47.036Z,3.10
2018-03-08T04:38:13.229Z,3.10
2018-03-08T04:40:39.468Z,3.10
2018-03-08T04:43:05.655Z,3.10
2018-03-08T04:45:31.843Z,3.10
2018-03-08T04:47:58.805Z,3.10
2018-03-08T04:50:24.988Z,3.00
2018-03-08T04:52:51.205Z,3.00
2018-03-08T04:55:17.405Z,3.00
2018-03-08T04:57:43.697Z,3.00
2018-03-08T05:00:10.677Z,3.00
2018-03-08T05:02:36.895Z,2.90
2018-03-08T05:05:03.095Z,2.90
2018-03-08T05:07:30.057Z,2.80
2018-03-08T05:09:56.983Z,2.70
2018-03-08T05:12:23.202Z,2.70
2018-03-08T05:14:49.397Z,2.60
2018-03-08T05:17:15.620Z,2.50
2018-03-08T05:19:41.845Z,2.50
2018-03-08T05:22:08.069Z,2.40
2018-03-08T05:24:34.260Z,2.40
2018-03-08T05:27:01.284Z,2.30
2018-03-08T05:29:27.484Z,2.30
2018-03-08T05:31:53.708Z,2.30
2018-03-08T05:34:19.898Z,2.30
2018-03-08T05:36:46.867Z,2.20
2018-03-08T05:39:13.065Z,2.20
2018-03-08T05:41:39.309Z,2.20
2018-03-08T05:44:06.236Z,2.20
2018-03-08T05:46:32.424Z,2.20
2018-03-08T05:48:58.643Z,2.20
2018-03-08T05:51:24.836Z,2.20
2018-03-08T05:53:51.796Z,2.20
2018-03-08T05:56:17.984Z,2.20
2018-03-08T05:58:44.213Z,2.20
2018-03-08T06:01:10.448Z,2.20
2018-03-08T06:03:36.676Z,2.20
2018-03-08T06:06:02.900Z,2.20
2018-03-08T06:08:29.165Z,2.10
2018-03-08T06:10:56.096Z,2.20
2018-03-08T06:13:23.072Z,2.20
2018-03-08T06:15:49.260Z,2.20
2018-03-08T06:18:15.484Z,2.20
2018-03-08T06:20:41.726Z,2.20
2018-03-08T06:23:08.712Z,2.20
2018-03-08T06:25:34.896Z,2.20
2018-03-08T06:28:01.088Z,2.20
2018-03-08T06:30:27.619Z,2.20
2018-03-08T06:32:53.808Z,2.20
2018-03-08T06:35:20.769Z,2.30
2018-03-08T06:37:46.981Z,2.30
2018-03-08T06:40:13.950Z,2.30
2018-03-08T06:42:40.221Z,2.20
2018-03-08T06:45:06.446Z,2.30
2018-03-08T06:47:32.652Z,2.30
2018-03-08T06:49:58.876Z,2.40
2018-03-08T06:52:25.137Z,2.40
2018-03-08T06:54:51.643Z,2.40
2018-03-08T06:57:17.828Z,2.40
2018-03-08T06:59:44.795Z,2.50
2018-03-08T07:02:10.992Z,2.50
2018-03-08T07:04:37.604Z,2.50
2018-03-08T07:07:03.792Z,2.50
2018-03-08T07:09:29.981Z,2.50
2018-03-08T07:11:56.229Z,2.60
2018-03-08T07:14:23.165Z,2.60
2018-03-08T07:16:49.388Z,2.60
2018-03-08T07:19:15.645Z,2.60
2018-03-08T07:21:42.628Z,2.70
2018-03-08T07:24:08.832Z,2.70
2018-03-08T07:26:35.045Z,2.70
2018-03-08T07:29:01.986Z,2.80
2018-03-08T07:31:28.957Z,2.90
2018-03-08T07:33:55.151Z,2.90
2018-03-08T07:36:22.120Z,3.00
2018-03-08T07:38:49.059Z,3.10
2018-03-08T07:41:16.404Z,3.20
2018-03-08T07:43:43.345Z,3.20
2018-03-08T07:46:11.060Z,3.20
2018-03-08T07:48:37.251Z,3.20
2018-03-08T07:51:04.210Z,3.30
2018-03-08T07:53:30.434Z,3.30
2018-03-08T07:55:56.633Z,3.30
2018-03-08T07:58:22.848Z,3.40
2018-03-08T08:00:49.045Z,3.50
2018-03-08T08:03:15.342Z,3.60
2018-03-08T08:05:54.649Z,3.80
2018-03-08T08:11:21.544Z,3.90
2018-03-08T08:13:48.504Z,4.10
2018-03-08T08:16:14.693Z,4.00
2018-03-08T08:18:40.980Z,4.10
2018-03-08T08:21:07.257Z,4.10
2018-03-08T08:23:40.585Z,4.10
2018-03-08T08:26:07.515Z,5.00
2018-03-08T08:28:34.477Z,5.00
2018-03-08T08:31:00.669Z,5.00
2018-03-08T08:33:26.893Z,4.90
2018-03-08T08:35:53.916Z,5.50
2018-03-08T08:38:20.161Z,5.50
2018-03-08T08:40:46.352Z,5.50
2018-03-08T08:43:12.572Z,5.40
2018-03-08T08:45:38.791Z,5.30
2018-03-08T08:48:05.724Z,5.60
2018-03-08T08:50:39.724Z,5.80
2018-03-08T08:53:05.925Z,5.70
2018-03-08T08:55:32.116Z,6.00
2018-03-08T08:57:58.340Z,5.80
2018-03-08T09:00:24.556Z,6.00
2018-03-08T09:02:51.503Z,6.50
2018-03-08T09:05:19.316Z,6.80
2018-03-08T09:07:45.528Z,6.80
2018-03-08T09:10:11.716Z,6.70
2018-03-08T09:12:37.949Z,6.90
2018-03-08T09:15:04.884Z,7.40
2018-03-08T09:17:31.081Z,7.40
2018-03-08T09:19:57.337Z,7.50
2018-03-08T09:22:24.277Z,8.40
2018-03-08T09:24:50.493Z,8.40
2018-03-08T09:27:16.689Z,8.40
2018-03-08T09:29:43.397Z,8.60
2018-03-08T09:32:10.340Z,9.30
2018-03-08T09:34:36.533Z,9.30
2018-03-08T09:37:02.753Z,8.80
2018-03-08T09:39:29.709Z,8.40
2018-03-08T09:41:55.933Z,8.30
2018-03-08T09:44:22.129Z,8.10
2018-03-08T09:46:48.369Z,7.70
2018-03-08T09:49:14.608Z,9.30
2018-03-08T09:54:09.386Z,10.80
2018-03-08T09:56:36.321Z,9.10
2018-03-08T09:59:03.320Z,8.10
2018-03-08T10:01:29.493Z,8.10
2018-03-08T10:03:56.467Z,9.30
2018-03-08T10:06:22.680Z,9.30
2018-03-08T10:08:49.641Z,10.90
2018-03-08T10:11:15.832Z,10.80
2018-03-08T10:13:42.053Z,10.50
2018-03-08T10:16:08.245Z,10.20
2018-03-08T10:18:34.452Z,10.10
2018-03-08T10:21:00.641Z,9.40
2018-03-08T10:23:26.854Z,10.80
2018-03-08T10:25:53.045Z,11.60
2018-03-08T10:28:19.248Z,11.60
2018-03-08T10:30:46.180Z,11.00
2018-03-08T10:33:12.380Z,10.90
2018-03-08T10:35:38.568Z,11.30
2018-03-08T10:38:04.780Z,12.70
2018-03-08T10:42:58.304Z,12.60
2018-03-08T10:45:24.492Z,13.20
2018-03-08T10:47:51.440Z,11.40
2018-03-08T10:50:18.369Z,10.80
2018-03-08T10:52:44.565Z,10.70
2018-03-08T10:55:10.773Z,10.20
2018-03-08T10:57:36.973Z,10.00
2018-03-08T11:00:03.968Z,8.70
2018-03-08T11:02:34.294Z,8.70
2018-03-08T11:05:00.529Z,8.00
2018-03-08T11:07:26.725Z,7.80
2018-03-08T11:09:52.938Z,7.80
2018-03-08T11:12:19.147Z,7.90
2018-03-08T11:14:45.374Z,7.80
2018-03-08T11:17:11.562Z,8.10
2018-03-08T11:19:37.755Z,8.30
2018-03-08T11:22:04.705Z,11.40
2018-03-08T11:24:30.912Z,11.40
2018-03-08T11:26:57.860Z,11.30
2018-03-08T11:29:24.797Z,12.20
2018-03-08T11:31:51.028Z,12.10
2018-03-08T11:34:17.225Z,12.50
2018-03-08T11:36:43.500Z,11.60
2018-03-08T11:39:10.793Z,13.40
2018-03-08T11:41:36.981Z,13.40
2018-03-08T11:44:03.932Z,13.30
2018-03-08T11:46:30.890Z,13.80
2018-03-08T11:48:57.104Z,13.80
2018-03-08T11:51:24.046Z,14.50
2018-03-08T11:53:51.000Z,14.30
2018-03-08T11:56:17.953Z,14.10
2018-03-08T11:58:44.893Z,13.40
2018-03-08T12:01:11.845Z,12.00
2018-03-08T12:03:38.801Z,11.80
2018-03-08T12:06:05.049Z,11.80
2018-03-08T12:08:31.249Z,10.20
2018-03-08T12:10:57.468Z,9.20
2018-03-08T12:13:31.245Z,9.10
2018-03-08T12:15:57.455Z,9.00
2018-03-08T12:18:23.636Z,9.70
2018-03-08T12:20:50.574Z,11.40
2018-03-08T12:23:17.532Z,11.60
2018-03-08T12:25:44.452Z,10.70
2018-03-08T12:28:10.743Z,10.70
2018-03-08T12:30:36.903Z,10.30
2018-03-08T12:33:03.153Z,9.50
2018-03-08T12:35:30.087Z,9.20
2018-03-08T12:37:56.311Z,9.20
2018-03-08T12:40:22.505Z,8.60
2018-03-08T12:42:48.716Z,8.50
2018-03-08T12:45:14.964Z,8.80
2018-03-08T12:47:41.181Z,9.70
2018-03-08T12:50:07.720Z,9.50
2018-03-08T12:52:33.999Z,9.30
2018-03-08T12:55:00.212Z,9.80
2018-03-08T12:57:26.547Z,10.50
2018-03-08T12:59:52.744Z,11.10
2018-03-08T13:02:18.981Z,11.80
2018-03-08T13:04:45.211Z,11.90
2018-03-08T13:07:11.389Z,12.60
2018-03-08T13:09:38.359Z,10.90
2018-03-08T13:12:04.553Z,10.90
2018-03-08T13:14:31.520Z,11.60
2018-03-08T13:16:57.725Z,11.50
2018-03-08T13:19:23.964Z,11.60
2018-03-08T13:21:50.892Z,12.00
2018-03-08T13:24:17.112Z,12.00
2018-03-08T13:26:43.312Z,12.60
2018-03-08T13:29:09.535Z,12.60
2018-03-08T13:31:35.788Z,12.60
2018-03-08T13:34:01.976Z,12.40
2018-03-08T13:36:28.204Z,12.20
2018-03-08T13:38:54.457Z,11.50
2018-03-08T13:41:20.809Z,10.70
2018-03-08T13:43:47.002Z,9.60
2018-03-08T13:46:13.183Z,9.90
2018-03-08T13:48:39.409Z,11.40
2018-03-08T13:51:05.601Z,12.10
2018-03-08T13:53:31.820Z,12.60
2018-03-08T13:55:58.017Z,12.80
2018-03-08T13:58:24.981Z,12.50
2018-03-08T14:00:51.169Z,12.40
2018-03-08T14:03:17.397Z,12.60
2018-03-08T14:05:43.615Z,12.60
2018-03-08T14:08:09.847Z,12.20
2018-03-08T14:10:36.801Z,11.80
2018-03-08T14:13:03.085Z,11.70
2018-03-08T14:15:29.289Z,10.10
2018-03-08T14:17:56.261Z,8.30
2018-03-08T14:20:22.482Z,8.20
2018-03-08T14:22:49.064Z,7.90
2018-03-08T14:25:15.248Z,7.80
2018-03-08T14:27:41.436Z,7.80
2018-03-08T14:30:07.661Z,7.80
2018-03-08T14:32:33.848Z,7.80
2018-03-08T14:35:00.865Z,7.80
2018-03-08T14:37:27.805Z,7.80
2018-03-08T14:39:54.773Z,7.80
2018-03-08T14:42:20.967Z,7.80
2018-03-08T14:44:47.189Z,8.00
2018-03-08T14:47:13.376Z,8.20
2018-03-08T14:49:39.603Z,8.30
2018-03-08T14:52:05.795Z,8.30
2018-03-08T14:54:32.756Z,8.10
2018-03-08T14:56:58.941Z,8.10
2018-03-08T14:59:25.907Z,7.90
2018-03-08T15:01:52.148Z,7.90
2018-03-08T15:04:19.125Z,8.00
2018-03-08T15:06:45.336Z,8.00
2018-03-08T15:09:11.556Z,8.10
2018-03-08T15:11:38.484Z,8.00
2018-03-08T15:14:04.700Z,8.00
2018-03-08T15:16:30.917Z,8.00
2018-03-08T15:18:57.148Z,7.90
2018-03-08T15:21:23.364Z,7.90
2018-03-08T15:23:49.595Z,7.80
2018-03-08T15:26:15.805Z,7.70
2018-03-08T15:28:42.020Z,7.60
2018-03-08T15:31:08.209Z,7.50
2018-03-08T15:33:34.437Z,7.50
2018-03-08T15:36:00.626Z,7.40
2018-03-08T15:38:26.844Z,7.30
2018-03-08T15:40:53.023Z,7.30
2018-03-08T15:43:19.240Z,7.30
2018-03-08T15:45:46.204Z,7.30
2018-03-08T15:48:13.164Z,7.30
2018-03-08T15:50:40.125Z,7.30
2018-03-08T15:53:06.308Z,7.30
2018-03-08T15:55:32.526Z,7.30
2018-03-08T15:57:58.752Z,7.30
2018-03-08T16:00:24.936Z,7.30
2018-03-08T16:02:51.120Z,7.40
2018-03-08T16:05:17.344Z,7.50
2018-03-08T16:07:55.885Z,7.40
2018-03-08T16:10:31.028Z,7.40
2018-03-08T16:12:57.966Z,7.20
2018-03-08T16:15:24.185Z,7.20
2018-03-08T16:17:50.375Z,7.20
2018-03-08T16:20:16.628Z,7.10
2018-03-08T16:22:42.816Z,7.20
2018-03-08T16:25:09.041Z,7.10
2018-03-08T16:27:35.233Z,7.10
2018-03-08T16:30:01.726Z,7.10
2018-03-08T16:32:27.912Z,7.10
2018-03-08T16:34:54.876Z,7.00
2018-03-08T16:37:21.069Z,7.00
2018-03-08T16:39:47.292Z,7.00
2018-03-08T16:42:13.481Z,7.00
2018-03-08T16:44:39.735Z,7.00
2018-03-08T16:47:05.933Z,6.90
2018-03-08T16:49:32.148Z,6.90
2018-03-08T16:51:59.078Z,6.90
2018-03-08T16:54:26.033Z,6.90
2018-03-08T16:56:52.245Z,6.90
2018-03-08T16:59:19.208Z,6.90
2018-03-08T17:01:46.144Z,6.80
2018-03-08T17:04:12.400Z,6.80
2018-03-08T17:06:38.591Z,6.80
2018-03-08T17:09:04.805Z,6.90
2018-03-08T17:11:31.027Z,6.80
2018-03-08T17:13:57.216Z,6.80
2018-03-08T17:16:23.449Z,6.80
2018-03-08T17:18:49.676Z,6.80
2018-03-08T17:21:15.895Z,6.80
2018-03-08T17:23:42.142Z,6.70
2018-03-08T17:26:08.349Z,6.70
2018-03-08T17:28:34.583Z,6.60
2018-03-08T17:31:00.815Z,6.60
2018-03-08T17:33:27.733Z,6.60
2018-03-08T17:35:54.764Z,6.60
2018-03-08T17:38:20.953Z,6.60
2018-03-08T17:40:47.168Z,6.60
2018-03-08T17:43:13.360Z,6.60
2018-03-08T17:45:39.585Z,6.60
2018-03-08T17:48:05.771Z,6.50
2018-03-08T17:50:31.997Z,6.50
2018-03-08T17:52:58.184Z,6.50
2018-03-08T17:55:25.640Z,6.40
2018-03-08T17:57:52.565Z,6.50
2018-03-08T18:00:25.912Z,6.40
2018-03-08T18:02:52.101Z,6.50
2018-03-08T18:05:18.365Z,6.40
2018-03-08T18:07:44.557Z,6.40
2018-03-08T18:10:10.747Z,6.40
2018-03-08T18:12:36.964Z,6.40
2018-03-08T18:15:03.157Z,6.40
2018-03-08T18:17:30.121Z,6.30
2018-03-08T18:19:56.409Z,6.30
2018-03-08T18:22:22.625Z,6.30
2018-03-08T18:24:48.811Z,6.40
2018-03-08T18:27:15.033Z,6.40
2018-03-08T18:29:41.253Z,6.40
2018-03-08T18:32:11.012Z,6.40
2018-03-08T18:34:37.594Z,6.40
2018-03-08T18:37:04.555Z,6.40
2018-03-08T18:39:31.540Z,6.40
2018-03-08T18:41:57.744Z,6.40
2018-03-08T18:44:23.937Z,6.30
2018-03-08T18:46:50.157Z,6.40
2018-03-08T18:49:16.353Z,6.30
2018-03-08T18:51:42.576Z,6.30
2018-03-08T18:54:08.785Z,6.40
2018-03-08T18:56:35.017Z,6.40
2018-03-08T18:59:01.203Z,6.40
2018-03-08T19:01:27.405Z,6.40
2018-03-08T19:03:53.624Z,6.50
2018-03-08T19:06:19.858Z,6.50
2018-03-08T19:08:46.081Z,6.60
2018-03-08T19:11:12.268Z,6.60
2018-03-08T19:13:39.236Z,6.60
2018-03-08T19:16:05.736Z,6.60
2018-03-08T19:18:31.952Z,6.60
2018-03-08T19:20:58.232Z,6.60
2018-03-08T19:23:24.462Z,6.60
2018-03-08T19:25:50.655Z,6.60
2018-03-08T19:28:17.625Z,6.50
2018-03-08T19:30:44.552Z,6.50
2018-03-08T19:33:11.476Z,6.40
2018-03-08T19:35:37.704Z,6.40
2018-03-08T19:38:03.900Z,6.40
2018-03-08T19:40:30.117Z,6.20
2018-03-08T19:42:56.325Z,6.00
2018-03-08T19:45:23.285Z,5.80
2018-03-08T19:47:49.478Z,5.70
2018-03-08T19:50:16.452Z,5.60
2018-03-08T19:52:42.640Z,5.60
2018-03-08T19:55:09.372Z,5.50
2018-03-08T19:57:35.584Z,5.50
2018-03-08T20:00:01.809Z,5.50
2018-03-08T20:02:28.009Z,5.40
2018-03-08T20:04:54.234Z,5.40
2018-03-08T20:07:21.166Z,5.50
2018-03-08T20:09:48.160Z,5.50
2018-03-08T20:12:15.232Z,5.50
2018-03-08T20:14:42.379Z,5.50
2018-03-08T20:17:09.324Z,5.60
2018-03-08T20:19:35.575Z,5.60
2018-03-08T20:22:01.768Z,5.60
2018-03-08T20:24:27.989Z,5.60
2018-03-08T20:26:54.228Z,5.60
2018-03-08T20:29:20.455Z,5.70
2018-03-08T20:31:46.641Z,5.60
2018-03-08T20:34:13.750Z,5.70
2018-03-08T20:36:40.053Z,5.70
2018-03-08T20:39:06.263Z,5.50
2018-03-08T20:41:32.485Z,5.20
2018-03-08T20:43:59.436Z,4.60
2018-03-08T20:46:25.718Z,4.60
2018-03-08T20:48:51.930Z,4.50
2018-03-08T20:51:18.149Z,4.30
2018-03-08T20:53:44.351Z,4.00
2018-03-08T20:56:10.577Z,3.80
2018-03-08T20:58:37.499Z,3.50
2018-03-08T21:01:03.712Z,3.50
2018-03-08T21:03:29.909Z,3.50
2018-03-08T21:05:56.158Z,3.40
2018-03-08T21:08:22.349Z,3.30
2018-03-08T21:10:48.601Z,3.30
2018-03-08T21:13:15.132Z,3.20
2018-03-08T21:15:41.316Z,3.20
2018-03-08T21:18:08.284Z,3.20
2018-03-08T21:20:34.521Z,3.20
2018-03-08T21:23:00.744Z,3.10
2018-03-08T21:25:27.005Z,3.10
2018-03-08T21:27:53.228Z,3.00
2018-03-08T21:30:19.425Z,2.90
2018-03-08T21:32:46.389Z,2.80
2018-03-08T21:35:12.581Z,2.80
2018-03-08T21:37:39.547Z,2.70
2018-03-08T21:40:05.735Z,2.70
2018-03-08T21:42:32.075Z,2.70
2018-03-08T21:44:58.231Z,2.60
2018-03-08T21:47:25.189Z,2.60
2018-03-08T21:49:51.384Z,2.60
2018-03-08T21:52:17.792Z,2.50
2018-03-08T21:54:43.976Z,2.40
2018-03-08T21:57:10.165Z,2.40
2018-03-08T21:59:36.390Z,2.30
2018-03-08T22:02:02.575Z,2.20
2018-03-08T22:04:28.801Z,2.20
2018-03-08T22:06:54.991Z,2.10
2018-03-08T22:09:21.952Z,1.90
2018-03-08T22:11:48.989Z,1.80
2018-03-08T22:14:15.191Z,1.80
2018-03-08T22:16:41.376Z,1.70
2018-03-08T22:19:07.595Z,1.60
2018-03-08T22:21:33.821Z,1.70
2018-03-08T22:24:00.025Z,1.70
2018-03-08T22:26:26.244Z,1.70
2018-03-08T22:28:52.437Z,1.70
2018-03-08T22:31:18.644Z,1.80
2018-03-08T22:33:44.835Z,1.80
2018-03-08T22:36:11.049Z,1.80
2018-03-08T22:38:37.236Z,1.80
2018-03-08T22:41:03.440Z,1.80
2018-03-08T22:43:30.371Z,1.80
2018-03-08T22:45:56.682Z,1.80
2018-03-08T22:48:22.890Z,1.80
2018-03-08T22:50:49.104Z,1.70
2018-03-08T22:53:15.284Z,1.60
2018-03-08T22:55:41.500Z,1.60
2018-03-08T22:58:07.696Z,1.50
2018-03-08T23:00:33.911Z,1.40
2018-03-08T23:03:06.289Z,1.40
2018-03-08T23:05:32.502Z,1.30
2018-03-08T23:07:58.696Z,1.30
2018-03-08T23:10:24.904Z,1.30
2018-03-08T23:12:51.093Z,1.20
2018-03-08T23:15:17.321Z,1.20
2018-03-08T23:17:43.581Z,1.20
2018-03-08T23:20:09.821Z,1.10
2018-03-08T23:22:36.012Z,1.10
2018-03-08T23:25:02.240Z,1.10
2018-03-08T23:27:28.437Z,1.00
2018-03-08T23:29:55.393Z,1.00
2018-03-08T23:32:22.344Z,1.00
2018-03-08T23:34:48.544Z,1.00
2018-03-08T23:37:14.762Z,1.00
2018-03-08T23:39:40.957Z,1.00
2018-03-08T23:42:07.192Z,0.90
2018-03-08T23:44:33.387Z,0.90
2018-03-08T23:47:00.320Z,1.00
2018-03-08T23:49:27.293Z,1.00
2018-03-08T23:51:54.236Z,1.00
2018-03-08T23:54:20.449Z,1.00
2018-03-08T23:56:47.414Z,1.00
2018-03-08T23:59:13.632Z,0.90
